sensor_id;sensor_type;location;lat;lon;timestamp;P1;durP1;ratioP1;P2;durP2;ratioP2
17177;SDS011;8704;52.006;4.374;2023-03-13T00:01:39;51.25;;;46.40;;
17177;SDS011;8704;52.006;4.374;2023-03-13T00:04:09;55.58;;;50.42;;
17177;SDS011;8704;52.006;4.374;2023-03-13T00:06:37;58.22;;;52.45;;
17177;SDS011;8704;52.006;4.374;2023-03-13T00:09:08;53.75;;;48.72;;
17177;SDS011;8704;52.006;4.374;2023-03-13T00:11:37;50.60;;;46.10;;
17177;SDS011;8704;52.006;4.374;2023-03-13T00:14:05;53.92;;;49.40;;
17177;SDS011;8704;52.006;4.374;2023-03-13T00:16:34;54.28;;;49.53;;
17177;SDS011;8704;52.006;4.374;2023-03-13T00:19:03;56.38;;;51.38;;
17177;SDS011;8704;52.006;4.374;2023-03-13T00:21:32;53.80;;;49.22;;
17177;SDS011;8704;52.006;4.374;2023-03-13T00:24:02;52.05;;;48.17;;
17177;SDS011;8704;52.006;4.374;2023-03-13T00:26:32;58.92;;;54.13;;
17177;SDS011;8704;52.006;4.374;2023-03-13T00:29:00;62.80;;;58.28;;
17177;SDS011;8704;52.006;4.374;2023-03-13T00:31:28;70.35;;;64.95;;
17177;SDS011;8704;52.006;4.374;2023-03-13T00:33:58;60.70;;;55.72;;
17177;SDS011;8704;52.006;4.374;2023-03-13T00:36:28;63.63;;;58.20;;
17177;SDS011;8704;52.006;4.374;2023-03-13T00:38:57;62.15;;;56.80;;
17177;SDS011;8704;52.006;4.374;2023-03-13T00:41:26;67.05;;;62.33;;
17177;SDS011;8704;52.006;4.374;2023-03-13T00:43:56;63.03;;;59.08;;
17177;SDS011;8704;52.006;4.374;2023-03-13T00:46:25;69.60;;;65.00;;
17177;SDS011;8704;52.006;4.374;2023-03-13T00:48:54;68.72;;;64.30;;
17177;SDS011;8704;52.006;4.374;2023-03-13T00:51:23;57.65;;;53.15;;
17177;SDS011;8704;52.006;4.374;2023-03-13T00:53:53;69.75;;;64.70;;
17177;SDS011;8704;52.006;4.374;2023-03-13T00:56:21;74.07;;;69.03;;
17177;SDS011;8704;52.006;4.374;2023-03-13T00:58:49;74.03;;;69.32;;
17177;SDS011;8704;52.006;4.374;2023-03-13T01:01:20;74.18;;;68.97;;
17177;SDS011;8704;52.006;4.374;2023-03-13T01:03:50;71.80;;;67.03;;
17177;SDS011;8704;52.006;4.374;2023-03-13T01:06:20;66.88;;;62.00;;
17177;SDS011;8704;52.006;4.374;2023-03-13T01:08:50;78.20;;;73.43;;
17177;SDS011;8704;52.006;4.374;2023-03-13T01:11:18;71.22;;;66.68;;
17177;SDS011;8704;52.006;4.374;2023-03-13T01:13:47;68.93;;;64.65;;
17177;SDS011;8704;52.006;4.374;2023-03-13T01:16:16;74.03;;;69.32;;
17177;SDS011;8704;52.006;4.374;2023-03-13T01:18:48;71.90;;;67.60;;
17177;SDS011;8704;52.006;4.374;2023-03-13T01:21:18;72.55;;;67.82;;
17177;SDS011;8704;52.006;4.374;2023-03-13T01:23:47;64.80;;;60.17;;
17177;SDS011;8704;52.006;4.374;2023-03-13T01:26:16;79.28;;;73.97;;
17177;SDS011;8704;52.006;4.374;2023-03-13T01:28:44;85.97;;;80.70;;
17177;SDS011;8704;52.006;4.374;2023-03-13T01:31:12;75.68;;;70.53;;
17177;SDS011;8704;52.006;4.374;2023-03-13T01:33:43;78.68;;;73.30;;
17177;SDS011;8704;52.006;4.374;2023-03-13T01:36:13;85.90;;;80.40;;
17177;SDS011;8704;52.006;4.374;2023-03-13T01:38:42;83.22;;;77.63;;
17177;SDS011;8704;52.006;4.374;2023-03-13T01:41:10;71.32;;;66.50;;
17177;SDS011;8704;52.006;4.374;2023-03-13T01:43:38;83.53;;;78.05;;
17177;SDS011;8704;52.006;4.374;2023-03-13T01:46:10;89.53;;;83.93;;
17177;SDS011;8704;52.006;4.374;2023-03-13T01:48:42;103.93;;;97.63;;
17177;SDS011;8704;52.006;4.374;2023-03-13T01:51:17;103.05;;;96.65;;
17177;SDS011;8704;52.006;4.374;2023-03-13T01:53:49;96.38;;;89.80;;
17177;SDS011;8704;52.006;4.374;2023-03-13T01:56:21;78.40;;;73.30;;
17177;SDS011;8704;52.006;4.374;2023-03-13T01:58:53;76.80;;;71.63;;
17177;SDS011;8704;52.006;4.374;2023-03-13T02:01:24;88.75;;;83.32;;
17177;SDS011;8704;52.006;4.374;2023-03-13T02:03:53;84.93;;;79.15;;
17177;SDS011;8704;52.006;4.374;2023-03-13T02:06:25;94.78;;;88.95;;
17177;SDS011;8704;52.006;4.374;2023-03-13T02:08:55;83.30;;;77.70;;
17177;SDS011;8704;52.006;4.374;2023-03-13T02:11:30;87.22;;;81.70;;
17177;SDS011;8704;52.006;4.374;2023-03-13T02:14:06;93.63;;;87.45;;
17177;SDS011;8704;52.006;4.374;2023-03-13T02:16:34;94.50;;;88.93;;
17177;SDS011;8704;52.006;4.374;2023-03-13T02:19:06;100.15;;;94.00;;
17177;SDS011;8704;52.006;4.374;2023-03-13T02:21:44;105.95;;;99.55;;
17177;SDS011;8704;52.006;4.374;2023-03-13T02:24:19;114.25;;;107.15;;
17177;SDS011;8704;52.006;4.374;2023-03-13T02:26:55;117.43;;;110.63;;
17177;SDS011;8704;52.006;4.374;2023-03-13T02:29:23;97.72;;;91.38;;
17177;SDS011;8704;52.006;4.374;2023-03-13T02:31:52;96.72;;;90.45;;
17177;SDS011;8704;52.006;4.374;2023-03-13T02:34:20;99.32;;;93.05;;
17177;SDS011;8704;52.006;4.374;2023-03-13T02:36:52;95.75;;;89.88;;
17177;SDS011;8704;52.006;4.374;2023-03-13T02:39:20;104.15;;;98.13;;
17177;SDS011;8704;52.006;4.374;2023-03-13T02:41:50;94.50;;;88.80;;
17177;SDS011;8704;52.006;4.374;2023-03-13T02:44:21;95.28;;;89.82;;
17177;SDS011;8704;52.006;4.374;2023-03-13T02:46:50;100.45;;;94.68;;
17177;SDS011;8704;52.006;4.374;2023-03-13T02:49:20;100.85;;;95.30;;
17177;SDS011;8704;52.006;4.374;2023-03-13T02:51:52;99.22;;;93.80;;
17177;SDS011;8704;52.006;4.374;2023-03-13T02:54:21;101.63;;;96.07;;
17177;SDS011;8704;52.006;4.374;2023-03-13T02:56:53;90.20;;;84.78;;
17177;SDS011;8704;52.006;4.374;2023-03-13T02:59:25;92.25;;;87.07;;
17177;SDS011;8704;52.006;4.374;2023-03-13T03:01:53;87.43;;;82.22;;
17177;SDS011;8704;52.006;4.374;2023-03-13T03:04:22;88.35;;;83.82;;
17177;SDS011;8704;52.006;4.374;2023-03-13T03:06:52;84.40;;;79.47;;
17177;SDS011;8704;52.006;4.374;2023-03-13T03:09:20;89.10;;;84.20;;
17177;SDS011;8704;52.006;4.374;2023-03-13T03:11:49;86.43;;;82.00;;
17177;SDS011;8704;52.006;4.374;2023-03-13T03:14:17;86.97;;;82.50;;
17177;SDS011;8704;52.006;4.374;2023-03-13T03:16:46;89.25;;;84.32;;
17177;SDS011;8704;52.006;4.374;2023-03-13T03:19:14;83.32;;;78.55;;
17177;SDS011;8704;52.006;4.374;2023-03-13T03:21:43;89.20;;;83.93;;
17177;SDS011;8704;52.006;4.374;2023-03-13T03:24:11;87.85;;;83.00;;
17177;SDS011;8704;52.006;4.374;2023-03-13T03:26:39;89.70;;;84.88;;
17177;SDS011;8704;52.006;4.374;2023-03-13T03:29:07;85.43;;;81.15;;
17177;SDS011;8704;52.006;4.374;2023-03-13T03:31:36;103.18;;;98.05;;
17177;SDS011;8704;52.006;4.374;2023-03-13T03:34:05;81.72;;;77.60;;
17177;SDS011;8704;52.006;4.374;2023-03-13T03:36:33;93.47;;;88.75;;
17177;SDS011;8704;52.006;4.374;2023-03-13T03:39:01;92.05;;;86.85;;
17177;SDS011;8704;52.006;4.374;2023-03-13T03:41:30;94.57;;;89.53;;
17177;SDS011;8704;52.006;4.374;2023-03-13T03:43:58;98.97;;;93.68;;
17177;SDS011;8704;52.006;4.374;2023-03-13T03:46:26;88.03;;;83.57;;
17177;SDS011;8704;52.006;4.374;2023-03-13T03:48:54;79.05;;;74.68;;
17177;SDS011;8704;52.006;4.374;2023-03-13T03:51:23;85.78;;;81.00;;
17177;SDS011;8704;52.006;4.374;2023-03-13T03:53:52;94.20;;;89.28;;
17177;SDS011;8704;52.006;4.374;2023-03-13T03:56:20;100.50;;;95.07;;
17177;SDS011;8704;52.006;4.374;2023-03-13T03:58:48;97.55;;;92.65;;
17177;SDS011;8704;52.006;4.374;2023-03-13T04:01:16;97.72;;;92.55;;
17177;SDS011;8704;52.006;4.374;2023-03-13T04:03:44;88.88;;;83.55;;
17177;SDS011;8704;52.006;4.374;2023-03-13T04:06:13;89.50;;;85.00;;
17177;SDS011;8704;52.006;4.374;2023-03-13T04:08:43;100.60;;;95.38;;
17177;SDS011;8704;52.006;4.374;2023-03-13T04:11:11;96.97;;;92.22;;
17177;SDS011;8704;52.006;4.374;2023-03-13T04:13:39;94.43;;;88.97;;
17177;SDS011;8704;52.006;4.374;2023-03-13T04:16:07;89.55;;;84.88;;
17177;SDS011;8704;52.006;4.374;2023-03-13T04:18:35;96.57;;;91.68;;
17177;SDS011;8704;52.006;4.374;2023-03-13T04:21:04;103.43;;;98.20;;
17177;SDS011;8704;52.006;4.374;2023-03-13T04:23:32;104.35;;;98.55;;
17177;SDS011;8704;52.006;4.374;2023-03-13T04:26:01;85.80;;;81.35;;
17177;SDS011;8704;52.006;4.374;2023-03-13T04:28:30;84.03;;;79.70;;
17177;SDS011;8704;52.006;4.374;2023-03-13T04:30:57;80.18;;;75.75;;
17177;SDS011;8704;52.006;4.374;2023-03-13T04:33:26;77.05;;;72.90;;
17177;SDS011;8704;52.006;4.374;2023-03-13T04:35:54;79.40;;;75.20;;
17177;SDS011;8704;52.006;4.374;2023-03-13T04:38:22;77.93;;;73.43;;
17177;SDS011;8704;52.006;4.374;2023-03-13T04:40:50;77.68;;;73.40;;
17177;SDS011;8704;52.006;4.374;2023-03-13T04:43:20;71.78;;;67.88;;
17177;SDS011;8704;52.006;4.374;2023-03-13T04:45:50;74.80;;;70.63;;
17177;SDS011;8704;52.006;4.374;2023-03-13T04:48:19;71.60;;;67.40;;
17177;SDS011;8704;52.006;4.374;2023-03-13T04:50:47;72.68;;;68.50;;
17177;SDS011;8704;52.006;4.374;2023-03-13T04:53:15;65.03;;;61.25;;
17177;SDS011;8704;52.006;4.374;2023-03-13T04:55:44;68.35;;;64.53;;
17177;SDS011;8704;52.006;4.374;2023-03-13T04:58:12;68.15;;;64.18;;
17177;SDS011;8704;52.006;4.374;2023-03-13T05:00:42;65.80;;;61.95;;
17177;SDS011;8704;52.006;4.374;2023-03-13T05:03:10;51.33;;;47.70;;
17177;SDS011;8704;52.006;4.374;2023-03-13T05:05:38;54.00;;;50.45;;
17177;SDS011;8704;52.006;4.374;2023-03-13T05:08:06;43.97;;;40.90;;
17177;SDS011;8704;52.006;4.374;2023-03-13T05:10:36;49.92;;;46.67;;
17177;SDS011;8704;52.006;4.374;2023-03-13T05:13:04;38.78;;;36.22;;
17177;SDS011;8704;52.006;4.374;2023-03-13T05:15:32;41.17;;;38.25;;
17177;SDS011;8704;52.006;4.374;2023-03-13T05:18:01;31.27;;;28.42;;
17177;SDS011;8704;52.006;4.374;2023-03-13T05:20:29;28.30;;;25.73;;
17177;SDS011;8704;52.006;4.374;2023-03-13T05:22:57;29.05;;;26.67;;
17177;SDS011;8704;52.006;4.374;2023-03-13T05:25:25;27.95;;;23.60;;
17177;SDS011;8704;52.006;4.374;2023-03-13T05:27:53;24.63;;;22.05;;
17177;SDS011;8704;52.006;4.374;2023-03-13T05:30:21;26.80;;;24.00;;
17177;SDS011;8704;52.006;4.374;2023-03-13T05:32:50;27.98;;;25.25;;
17177;SDS011;8704;52.006;4.374;2023-03-13T05:35:19;24.98;;;22.48;;
17177;SDS011;8704;52.006;4.374;2023-03-13T05:37:48;20.25;;;18.45;;
17177;SDS011;8704;52.006;4.374;2023-03-13T05:40:16;23.85;;;21.63;;
17177;SDS011;8704;52.006;4.374;2023-03-13T05:42:44;21.60;;;19.30;;
17177;SDS011;8704;52.006;4.374;2023-03-13T05:45:12;28.13;;;19.25;;
17177;SDS011;8704;52.006;4.374;2023-03-13T05:47:40;22.50;;;20.25;;
17177;SDS011;8704;52.006;4.374;2023-03-13T05:50:09;19.00;;;17.02;;
17177;SDS011;8704;52.006;4.374;2023-03-13T05:52:39;22.40;;;16.55;;
17177;SDS011;8704;52.006;4.374;2023-03-13T05:55:07;17.83;;;15.98;;
17177;SDS011;8704;52.006;4.374;2023-03-13T05:57:35;21.52;;;14.27;;
17177;SDS011;8704;52.006;4.374;2023-03-13T06:00:05;20.83;;;15.70;;
17177;SDS011;8704;52.006;4.374;2023-03-13T06:02:33;20.10;;;16.50;;
17177;SDS011;8704;52.006;4.374;2023-03-13T06:05:02;22.30;;;19.27;;
17177;SDS011;8704;52.006;4.374;2023-03-13T06:07:30;17.08;;;15.45;;
17177;SDS011;8704;52.006;4.374;2023-03-13T06:09:59;20.05;;;17.25;;
17177;SDS011;8704;52.006;4.374;2023-03-13T06:12:27;19.33;;;17.45;;
17177;SDS011;8704;52.006;4.374;2023-03-13T06:14:56;23.98;;;17.13;;
17177;SDS011;8704;52.006;4.374;2023-03-13T06:17:24;23.02;;;20.92;;
17177;SDS011;8704;52.006;4.374;2023-03-13T06:19:52;25.58;;;23.10;;
17177;SDS011;8704;52.006;4.374;2023-03-13T06:22:19;26.48;;;24.42;;
17177;SDS011;8704;52.006;4.374;2023-03-13T06:24:48;25.90;;;23.75;;
17177;SDS011;8704;52.006;4.374;2023-03-13T06:27:17;27.50;;;24.75;;
17177;SDS011;8704;52.006;4.374;2023-03-13T06:29:45;31.20;;;28.52;;
17177;SDS011;8704;52.006;4.374;2023-03-13T06:32:13;28.55;;;24.15;;
17177;SDS011;8704;52.006;4.374;2023-03-13T06:34:42;29.08;;;26.48;;
17177;SDS011;8704;52.006;4.374;2023-03-13T06:37:10;30.77;;;28.00;;
17177;SDS011;8704;52.006;4.374;2023-03-13T06:39:38;34.10;;;31.48;;
17177;SDS011;8704;52.006;4.374;2023-03-13T06:42:06;31.45;;;28.50;;
17177;SDS011;8704;52.006;4.374;2023-03-13T06:44:36;34.95;;;32.10;;
17177;SDS011;8704;52.006;4.374;2023-03-13T06:47:04;39.05;;;36.08;;
17177;SDS011;8704;52.006;4.374;2023-03-13T06:49:32;38.42;;;35.45;;
17177;SDS011;8704;52.006;4.374;2023-03-13T06:52:00;36.13;;;33.35;;
17177;SDS011;8704;52.006;4.374;2023-03-13T06:54:28;37.20;;;34.65;;
17177;SDS011;8704;52.006;4.374;2023-03-13T06:56:56;39.53;;;36.35;;
17177;SDS011;8704;52.006;4.374;2023-03-13T06:59:24;37.47;;;34.67;;
17177;SDS011;8704;52.006;4.374;2023-03-13T07:01:54;36.70;;;33.28;;
17177;SDS011;8704;52.006;4.374;2023-03-13T07:04:22;42.40;;;38.95;;
17177;SDS011;8704;52.006;4.374;2023-03-13T07:06:50;40.83;;;37.60;;
17177;SDS011;8704;52.006;4.374;2023-03-13T07:09:18;41.00;;;38.15;;
17177;SDS011;8704;52.006;4.374;2023-03-13T07:11:46;40.45;;;37.80;;
17177;SDS011;8704;52.006;4.374;2023-03-13T07:14:14;45.63;;;42.72;;
17177;SDS011;8704;52.006;4.374;2023-03-13T07:16:43;39.63;;;37.13;;
17177;SDS011;8704;52.006;4.374;2023-03-13T07:19:13;45.80;;;42.67;;
17177;SDS011;8704;52.006;4.374;2023-03-13T07:21:42;45.35;;;41.97;;
17177;SDS011;8704;52.006;4.374;2023-03-13T07:24:10;44.88;;;41.97;;
17177;SDS011;8704;52.006;4.374;2023-03-13T07:26:38;41.13;;;38.33;;
17177;SDS011;8704;52.006;4.374;2023-03-13T07:29:23;40.25;;;37.00;;
17177;SDS011;8704;52.006;4.374;2023-03-13T07:31:51;34.70;;;32.40;;
17177;SDS011;8704;52.006;4.374;2023-03-13T07:34:20;39.08;;;36.08;;
17177;SDS011;8704;52.006;4.374;2023-03-13T07:36:49;37.22;;;34.60;;
17177;SDS011;8704;52.006;4.374;2023-03-13T07:39:17;38.35;;;35.42;;
17177;SDS011;8704;52.006;4.374;2023-03-13T07:41:45;36.05;;;33.20;;
17177;SDS011;8704;52.006;4.374;2023-03-13T07:44:13;36.90;;;34.33;;
17177;SDS011;8704;52.006;4.374;2023-03-13T07:46:41;31.13;;;28.65;;
17177;SDS011;8704;52.006;4.374;2023-03-13T07:49:09;33.40;;;30.85;;
17177;SDS011;8704;52.006;4.374;2023-03-13T07:51:39;28.65;;;26.33;;
17177;SDS011;8704;52.006;4.374;2023-03-13T07:54:09;29.92;;;27.77;;
17177;SDS011;8704;52.006;4.374;2023-03-13T07:56:38;29.05;;;26.95;;
17177;SDS011;8704;52.006;4.374;2023-03-13T07:59:06;27.20;;;25.08;;
17177;SDS011;8704;52.006;4.374;2023-03-13T08:01:35;23.15;;;21.35;;
17177;SDS011;8704;52.006;4.374;2023-03-13T08:04:03;24.73;;;23.10;;
17177;SDS011;8704;52.006;4.374;2023-03-13T08:06:32;22.13;;;20.33;;
17177;SDS011;8704;52.006;4.374;2023-03-13T08:09:03;22.98;;;21.17;;
17177;SDS011;8704;52.006;4.374;2023-03-13T08:11:32;23.05;;;21.45;;
17177;SDS011;8704;52.006;4.374;2023-03-13T08:14:00;22.00;;;20.27;;
17177;SDS011;8704;52.006;4.374;2023-03-13T08:16:28;23.50;;;21.88;;
17177;SDS011;8704;52.006;4.374;2023-03-13T08:19:00;19.20;;;17.33;;
17177;SDS011;8704;52.006;4.374;2023-03-13T08:21:31;21.98;;;20.05;;
17177;SDS011;8704;52.006;4.374;2023-03-13T08:24:01;19.98;;;18.35;;
17177;SDS011;8704;52.006;4.374;2023-03-13T08:26:33;17.45;;;15.95;;
17177;SDS011;8704;52.006;4.374;2023-03-13T08:29:03;15.45;;;13.98;;
17177;SDS011;8704;52.006;4.374;2023-03-13T08:31:33;15.13;;;13.52;;
17177;SDS011;8704;52.006;4.374;2023-03-13T08:34:03;15.43;;;13.40;;
17177;SDS011;8704;52.006;4.374;2023-03-13T08:36:32;14.65;;;11.90;;
17177;SDS011;8704;52.006;4.374;2023-03-13T08:39:02;16.27;;;12.05;;
17177;SDS011;8704;52.006;4.374;2023-03-13T08:41:36;12.13;;;8.40;;
17177;SDS011;8704;52.006;4.374;2023-03-13T08:44:06;16.02;;;8.82;;
17177;SDS011;8704;52.006;4.374;2023-03-13T08:46:37;9.85;;;8.13;;
17177;SDS011;8704;52.006;4.374;2023-03-13T08:49:06;15.27;;;7.55;;
17177;SDS011;8704;52.006;4.374;2023-03-13T08:51:35;15.55;;;8.52;;
17177;SDS011;8704;52.006;4.374;2023-03-13T08:54:05;11.27;;;6.65;;
17177;SDS011;8704;52.006;4.374;2023-03-13T08:56:33;15.90;;;7.47;;
17177;SDS011;8704;52.006;4.374;2023-03-13T08:59:03;14.60;;;6.35;;
17177;SDS011;8704;52.006;4.374;2023-03-13T09:01:33;14.68;;;6.65;;
17177;SDS011;8704;52.006;4.374;2023-03-13T09:04:03;12.25;;;6.05;;
17177;SDS011;8704;52.006;4.374;2023-03-13T09:06:31;16.27;;;5.75;;
17177;SDS011;8704;52.006;4.374;2023-03-13T09:09:00;15.75;;;5.25;;
17177;SDS011;8704;52.006;4.374;2023-03-13T09:11:29;14.10;;;5.95;;
17177;SDS011;8704;52.006;4.374;2023-03-13T09:13:58;10.30;;;5.00;;
17177;SDS011;8704;52.006;4.374;2023-03-13T09:16:27;10.75;;;5.22;;
17177;SDS011;8704;52.006;4.374;2023-03-13T09:18:57;14.95;;;5.70;;
17177;SDS011;8704;52.006;4.374;2023-03-13T09:21:26;16.52;;;6.03;;
17177;SDS011;8704;52.006;4.374;2023-03-13T09:23:56;12.82;;;5.60;;
17177;SDS011;8704;52.006;4.374;2023-03-13T09:26:24;10.85;;;6.05;;
17177;SDS011;8704;52.006;4.374;2023-03-13T09:28:54;10.80;;;4.60;;
17177;SDS011;8704;52.006;4.374;2023-03-13T09:31:23;9.52;;;4.70;;
17177;SDS011;8704;52.006;4.374;2023-03-13T09:33:53;11.23;;;5.47;;
17177;SDS011;8704;52.006;4.374;2023-03-13T09:36:21;9.75;;;4.93;;
17177;SDS011;8704;52.006;4.374;2023-03-13T09:38:50;9.32;;;4.03;;
17177;SDS011;8704;52.006;4.374;2023-03-13T09:41:21;8.38;;;4.10;;
17177;SDS011;8704;52.006;4.374;2023-03-13T09:43:54;10.30;;;3.85;;
17177;SDS011;8704;52.006;4.374;2023-03-13T09:46:28;8.20;;;3.90;;
17177;SDS011;8704;52.006;4.374;2023-03-13T09:49:01;9.52;;;4.07;;
17177;SDS011;8704;52.006;4.374;2023-03-13T09:51:32;6.70;;;3.88;;
17177;SDS011;8704;52.006;4.374;2023-03-13T09:54:03;6.32;;;3.15;;
17177;SDS011;8704;52.006;4.374;2023-03-13T09:56:36;11.15;;;3.40;;
17177;SDS011;8704;52.006;4.374;2023-03-13T09:59:12;5.70;;;3.15;;
17177;SDS011;8704;52.006;4.374;2023-03-13T10:01:45;7.18;;;3.10;;
17177;SDS011;8704;52.006;4.374;2023-03-13T10:04:23;8.95;;;4.10;;
17177;SDS011;8704;52.006;4.374;2023-03-13T10:06:56;6.63;;;2.72;;
17177;SDS011;8704;52.006;4.374;2023-03-13T10:09:25;9.88;;;3.85;;
17177;SDS011;8704;52.006;4.374;2023-03-13T10:11:59;11.45;;;3.58;;
17177;SDS011;8704;52.006;4.374;2023-03-13T10:14:41;6.75;;;3.00;;
17177;SDS011;8704;52.006;4.374;2023-03-13T10:17:15;6.63;;;2.92;;
17177;SDS011;8704;52.006;4.374;2023-03-13T10:19:55;8.70;;;3.15;;
17177;SDS011;8704;52.006;4.374;2023-03-13T10:22:27;7.18;;;2.20;;
17177;SDS011;8704;52.006;4.374;2023-03-13T10:24:58;10.85;;;2.83;;
17177;SDS011;8704;52.006;4.374;2023-03-13T10:27:29;12.38;;;3.20;;
17177;SDS011;8704;52.006;4.374;2023-03-13T10:29:59;14.68;;;3.42;;
17177;SDS011;8704;52.006;4.374;2023-03-13T10:32:27;11.75;;;3.38;;
17177;SDS011;8704;52.006;4.374;2023-03-13T10:34:55;9.50;;;3.28;;
17177;SDS011;8704;52.006;4.374;2023-03-13T10:37:26;12.73;;;3.45;;
17177;SDS011;8704;52.006;4.374;2023-03-13T10:39:59;14.60;;;3.70;;
17177;SDS011;8704;52.006;4.374;2023-03-13T10:42:42;12.98;;;3.10;;
17177;SDS011;8704;52.006;4.374;2023-03-13T10:45:15;13.52;;;3.60;;
17177;SDS011;8704;52.006;4.374;2023-03-13T10:47:44;10.65;;;3.47;;
17177;SDS011;8704;52.006;4.374;2023-03-13T10:50:21;10.93;;;2.95;;
17177;SDS011;8704;52.006;4.374;2023-03-13T10:52:51;15.52;;;3.75;;
17177;SDS011;8704;52.006;4.374;2023-03-13T10:55:20;13.93;;;3.50;;
17177;SDS011;8704;52.006;4.374;2023-03-13T10:57:54;13.18;;;3.30;;
17177;SDS011;8704;52.006;4.374;2023-03-13T11:00:34;10.70;;;3.20;;
17177;SDS011;8704;52.006;4.374;2023-03-13T11:03:04;14.95;;;3.60;;
17177;SDS011;8704;52.006;4.374;2023-03-13T11:05:40;11.77;;;3.33;;
17177;SDS011;8704;52.006;4.374;2023-03-13T11:08:10;13.43;;;3.40;;
17177;SDS011;8704;52.006;4.374;2023-03-13T11:10:58;14.98;;;3.08;;
17177;SDS011;8704;52.006;4.374;2023-03-13T11:13:28;11.57;;;3.55;;
17177;SDS011;8704;52.006;4.374;2023-03-13T11:16:08;18.95;;;4.10;;
17177;SDS011;8704;52.006;4.374;2023-03-13T11:18:50;14.77;;;3.58;;
17177;SDS011;8704;52.006;4.374;2023-03-13T11:21:37;21.58;;;4.13;;
17177;SDS011;8704;52.006;4.374;2023-03-13T11:24:12;16.17;;;4.65;;
17177;SDS011;8704;52.006;4.374;2023-03-13T11:26:47;17.92;;;3.88;;
17177;SDS011;8704;52.006;4.374;2023-03-13T11:29:32;16.65;;;4.10;;
17177;SDS011;8704;52.006;4.374;2023-03-13T11:32:12;17.33;;;3.60;;
17177;SDS011;8704;52.006;4.374;2023-03-13T11:34:49;16.52;;;3.97;;
17177;SDS011;8704;52.006;4.374;2023-03-13T11:39:52;21.92;;;4.50;;
17177;SDS011;8704;52.006;4.374;2023-03-13T11:42:33;20.10;;;4.78;;
17177;SDS011;8704;52.006;4.374;2023-03-13T11:45:14;19.83;;;4.20;;
17177;SDS011;8704;52.006;4.374;2023-03-13T11:47:53;18.95;;;4.50;;
17177;SDS011;8704;52.006;4.374;2023-03-13T11:50:38;16.05;;;4.53;;
17177;SDS011;8704;52.006;4.374;2023-03-13T11:53:20;21.90;;;4.78;;
17177;SDS011;8704;52.006;4.374;2023-03-13T11:55:58;20.90;;;5.00;;
17177;SDS011;8704;52.006;4.374;2023-03-13T11:58:37;21.50;;;4.57;;
17177;SDS011;8704;52.006;4.374;2023-03-13T12:01:15;19.20;;;4.60;;
17177;SDS011;8704;52.006;4.374;2023-03-13T12:03:50;15.27;;;4.28;;
17177;SDS011;8704;52.006;4.374;2023-03-13T12:06:27;22.60;;;5.30;;
17177;SDS011;8704;52.006;4.374;2023-03-13T12:09:00;21.80;;;5.85;;
17177;SDS011;8704;52.006;4.374;2023-03-13T12:11:35;15.63;;;5.05;;
17177;SDS011;8704;52.006;4.374;2023-03-13T12:14:10;20.30;;;4.88;;
17177;SDS011;8704;52.006;4.374;2023-03-13T12:19:13;20.52;;;4.95;;
17177;SDS011;8704;52.006;4.374;2023-03-13T12:21:44;21.25;;;5.20;;
17177;SDS011;8704;52.006;4.374;2023-03-13T12:24:20;22.50;;;5.43;;
17177;SDS011;8704;52.006;4.374;2023-03-13T12:26:53;22.33;;;5.32;;
17177;SDS011;8704;52.006;4.374;2023-03-13T12:29:36;18.98;;;5.40;;
17177;SDS011;8704;52.006;4.374;2023-03-13T12:32:12;21.40;;;5.13;;
17177;SDS011;8704;52.006;4.374;2023-03-13T12:34:54;19.75;;;5.57;;
17177;SDS011;8704;52.006;4.374;2023-03-13T12:37:30;21.42;;;5.90;;
17177;SDS011;8704;52.006;4.374;2023-03-13T12:40:09;21.35;;;5.25;;
17177;SDS011;8704;52.006;4.374;2023-03-13T12:42:44;17.55;;;4.82;;
17177;SDS011;8704;52.006;4.374;2023-03-13T12:45:18;21.00;;;4.63;;
17177;SDS011;8704;52.006;4.374;2023-03-13T12:47:55;22.83;;;5.25;;
17177;SDS011;8704;52.006;4.374;2023-03-13T12:50:44;18.65;;;4.95;;
17177;SDS011;8704;52.006;4.374;2023-03-13T12:56:51;22.35;;;5.43;;
17177;SDS011;8704;52.006;4.374;2023-03-13T12:59:31;20.17;;;4.95;;
17177;SDS011;8704;52.006;4.374;2023-03-13T13:02:06;22.65;;;4.82;;
17177;SDS011;8704;52.006;4.374;2023-03-13T13:04:41;25.38;;;5.50;;
17177;SDS011;8704;52.006;4.374;2023-03-13T13:07:21;20.52;;;4.97;;
17177;SDS011;8704;52.006;4.374;2023-03-13T13:10:03;20.35;;;4.80;;
17177;SDS011;8704;52.006;4.374;2023-03-13T13:12:44;19.95;;;5.38;;
17177;SDS011;8704;52.006;4.374;2023-03-13T13:15:15;23.58;;;5.20;;
17177;SDS011;8704;52.006;4.374;2023-03-13T13:17:48;19.20;;;5.25;;
17177;SDS011;8704;52.006;4.374;2023-03-13T13:20:41;22.10;;;5.50;;
17177;SDS011;8704;52.006;4.374;2023-03-13T13:23:26;20.77;;;6.10;;
17177;SDS011;8704;52.006;4.374;2023-03-13T13:32:29;23.17;;;5.30;;
17177;SDS011;8704;52.006;4.374;2023-03-13T13:35:22;21.30;;;5.47;;
17177;SDS011;8704;52.006;4.374;2023-03-13T13:37:52;22.83;;;6.18;;
17177;SDS011;8704;52.006;4.374;2023-03-13T13:44:22;24.40;;;5.63;;
17177;SDS011;8704;52.006;4.374;2023-03-13T13:46:53;21.30;;;5.63;;
17177;SDS011;8704;52.006;4.374;2023-03-13T13:58:11;21.52;;;5.20;;
17177;SDS011;8704;52.006;4.374;2023-03-13T14:00:44;22.30;;;5.53;;
17177;SDS011;8704;52.006;4.374;2023-03-13T14:03:19;22.42;;;5.40;;
17177;SDS011;8704;52.006;4.374;2023-03-13T14:05:50;16.30;;;5.20;;
17177;SDS011;8704;52.006;4.374;2023-03-13T14:08:23;18.10;;;4.68;;
17177;SDS011;8704;52.006;4.374;2023-03-13T14:11:02;21.15;;;5.30;;
17177;SDS011;8704;52.006;4.374;2023-03-13T14:13:37;16.88;;;5.43;;
17177;SDS011;8704;52.006;4.374;2023-03-13T14:16:16;16.33;;;5.28;;
17177;SDS011;8704;52.006;4.374;2023-03-13T14:18:50;17.80;;;5.07;;
17177;SDS011;8704;52.006;4.374;2023-03-13T14:21:20;18.38;;;4.85;;
17177;SDS011;8704;52.006;4.374;2023-03-13T14:23:49;19.58;;;5.65;;
17177;SDS011;8704;52.006;4.374;2023-03-13T14:26:18;17.17;;;5.72;;
17177;SDS011;8704;52.006;4.374;2023-03-13T14:28:50;16.50;;;5.35;;
17177;SDS011;8704;52.006;4.374;2023-03-13T14:31:22;18.30;;;5.20;;
17177;SDS011;8704;52.006;4.374;2023-03-13T14:33:53;18.23;;;5.15;;
17177;SDS011;8704;52.006;4.374;2023-03-13T14:36:22;14.45;;;4.60;;
17177;SDS011;8704;52.006;4.374;2023-03-13T14:38:51;21.63;;;6.03;;
17177;SDS011;8704;52.006;4.374;2023-03-13T14:41:27;17.13;;;4.78;;
17177;SDS011;8704;52.006;4.374;2023-03-13T14:44:04;15.35;;;4.80;;
17177;SDS011;8704;52.006;4.374;2023-03-13T14:46:40;20.55;;;5.25;;
17177;SDS011;8704;52.006;4.374;2023-03-13T14:49:14;15.48;;;5.07;;
17177;SDS011;8704;52.006;4.374;2023-03-13T14:51:44;16.85;;;5.25;;
17177;SDS011;8704;52.006;4.374;2023-03-13T14:54:26;16.85;;;4.85;;
17177;SDS011;8704;52.006;4.374;2023-03-13T14:57:03;21.88;;;4.95;;
17177;SDS011;8704;52.006;4.374;2023-03-13T14:59:43;18.10;;;5.50;;
17177;SDS011;8704;52.006;4.374;2023-03-13T15:02:13;18.38;;;5.70;;
17177;SDS011;8704;52.006;4.374;2023-03-13T15:04:58;17.02;;;5.47;;
17177;SDS011;8704;52.006;4.374;2023-03-13T15:07:27;19.08;;;5.40;;
17177;SDS011;8704;52.006;4.374;2023-03-13T15:10:16;18.27;;;5.50;;
17177;SDS011;8704;52.006;4.374;2023-03-13T15:12:46;17.25;;;5.38;;
17177;SDS011;8704;52.006;4.374;2023-03-13T15:15:16;16.35;;;5.50;;
17177;SDS011;8704;52.006;4.374;2023-03-13T15:17:45;17.02;;;5.55;;
17177;SDS011;8704;52.006;4.374;2023-03-13T15:20:13;20.65;;;4.70;;
17177;SDS011;8704;52.006;4.374;2023-03-13T15:22:43;16.05;;;5.93;;
17177;SDS011;8704;52.006;4.374;2023-03-13T15:25:13;17.42;;;5.15;;
17177;SDS011;8704;52.006;4.374;2023-03-13T15:27:43;16.70;;;5.60;;
17177;SDS011;8704;52.006;4.374;2023-03-13T15:30:13;18.20;;;5.57;;
17177;SDS011;8704;52.006;4.374;2023-03-13T15:32:43;14.75;;;5.40;;